createdAt,value
2023-04-13T00:04:09.612Z,978
2023-04-13T00:09:59.236Z,978
2023-04-13T00:14:59.260Z,978
2023-04-13T00:20:09.523Z,978
2023-04-13T00:25:09.539Z,978
2023-04-13T00:30:09.542Z,978
2023-04-13T00:35:59.249Z,978
2023-04-13T00:41:09.560Z,978
2023-04-13T00:46:59.247Z,978
2023-04-13T00:52:09.546Z,977
2023-04-13T00:57:59.289Z,978
2023-04-13T01:03:09.786Z,977
2023-04-13T01:08:59.266Z,978
2023-04-13T01:13:59.367Z,978
2023-04-13T01:19:09.540Z,977
2023-04-13T01:24:59.263Z,977
2023-04-13T01:29:59.294Z,977
2023-04-13T01:35:09.548Z,977
2023-04-13T01:40:09.540Z,977
2023-04-13T01:45:59.303Z,977
2023-04-13T01:51:09.606Z,977
2023-04-13T01:56:09.609Z,977
2023-04-13T02:01:59.342Z,977
2023-04-13T02:06:59.269Z,977
2023-04-13T02:12:09.539Z,977
2023-04-13T02:17:09.547Z,977
2023-04-13T02:22:59.264Z,977
2023-04-13T02:27:59.270Z,977
2023-04-13T02:33:09.577Z,977
2023-04-13T02:38:09.522Z,977
2023-04-13T02:43:59.504Z,977
2023-04-13T02:49:09.564Z,977
2023-04-13T02:54:09.689Z,977
2023-04-13T02:59:59.257Z,977
2023-04-13T03:05:09.516Z,977
2023-04-13T03:10:59.291Z,977
2023-04-13T03:16:09.541Z,977
2023-04-13T03:21:59.254Z,977
2023-04-13T03:27:09.526Z,977
2023-04-13T03:32:59.355Z,977
2023-04-13T03:38:09.531Z,977
2023-04-13T03:43:09.536Z,977
2023-04-13T03:48:59.249Z,977
2023-04-13T03:53:59.460Z,977
2023-04-13T03:58:59.249Z,977
2023-04-13T04:03:59.594Z,977
2023-04-13T04:09:09.547Z,978
2023-04-13T04:14:59.288Z,978
2023-04-13T04:20:09.534Z,978
2023-04-13T04:25:09.540Z,978
2023-04-13T04:30:09.550Z,978
2023-04-13T04:35:59.243Z,978
2023-04-13T04:40:59.275Z,978
2023-04-13T04:46:09.561Z,978
2023-04-13T04:51:59.255Z,978
2023-04-13T04:56:59.255Z,978
2023-04-13T05:02:09.629Z,978
2023-04-13T05:07:59.259Z,978
2023-04-13T05:12:59.269Z,978
2023-04-13T05:18:09.530Z,978
2023-04-13T05:23:09.556Z,978
2023-04-13T05:28:09.583Z,978
2023-04-13T05:33:59.256Z,979
2023-04-13T05:38:59.588Z,979
2023-04-13T05:44:09.530Z,979
2023-04-13T05:54:59.257Z,979
2023-04-13T05:59:59.312Z,979
2023-04-13T06:05:09.733Z,979
2023-04-13T06:10:09.541Z,979
2023-04-13T06:15:59.235Z,979
2023-04-13T06:21:09.520Z,979
2023-04-13T06:26:09.530Z,979
2023-04-13T06:31:59.261Z,980
2023-04-13T06:37:09.545Z,980
2023-04-13T06:42:09.544Z,980
2023-04-13T06:47:59.341Z,980
2023-04-13T06:53:09.563Z,980
2023-04-13T06:58:09.569Z,980
2023-04-13T07:03:59.331Z,980
2023-04-13T07:08:59.515Z,980
2023-04-13T07:14:09.527Z,980
2023-04-13T07:19:09.544Z,980
2023-04-13T07:24:09.686Z,980
2023-04-13T07:29:59.287Z,980
2023-04-13T07:34:59.271Z,980
2023-04-13T07:40:09.536Z,981
2023-04-13T07:45:59.251Z,981
2023-04-13T07:50:59.269Z,981
2023-04-13T07:56:09.594Z,981
2023-04-13T08:01:09.581Z,981
2023-04-13T08:06:59.251Z,981
2023-04-13T08:12:09.563Z,981
2023-04-13T08:23:11.907Z,981
2023-04-13T08:28:09.584Z,981
2023-04-13T08:33:59.246Z,981
2023-04-13T08:39:09.542Z,981
2023-04-13T08:44:59.257Z,981
2023-04-13T08:50:09.557Z,981
2023-04-13T08:55:09.551Z,981
2023-04-13T09:00:09.559Z,982
2023-04-13T09:05:59.258Z,981
2023-04-13T09:11:09.579Z,981
2023-04-13T09:16:09.543Z,981
2023-04-13T09:21:59.298Z,981
2023-04-13T09:27:09.566Z,981
2023-04-13T09:32:59.306Z,982
2023-04-13T09:38:09.610Z,982
2023-04-13T09:43:09.540Z,982
2023-04-13T09:48:09.542Z,982
2023-04-13T09:53:59.262Z,982
2023-04-13T09:58:59.418Z,982
2023-04-13T10:04:09.577Z,982
2023-04-13T10:09:59.277Z,982
2023-04-13T10:14:59.299Z,982
2023-04-13T10:20:09.571Z,982
2023-04-13T10:25:59.269Z,982
2023-04-13T10:31:09.581Z,982
2023-04-13T10:36:09.569Z,982
2023-04-13T10:41:09.562Z,982
2023-04-13T10:46:59.329Z,982
2023-04-13T10:51:59.296Z,982
2023-04-13T10:57:09.602Z,982
2023-04-13T11:02:59.443Z,982
2023-04-13T11:08:09.546Z,982
2023-04-13T11:13:09.568Z,982
2023-04-13T11:18:59.390Z,982
2023-04-13T11:24:09.574Z,982
2023-04-13T11:30:09.897Z,982
2023-04-13T11:35:09.572Z,982
2023-04-13T11:41:12.488Z,982
2023-04-13T11:45:59.313Z,982
2023-04-13T11:51:09.562Z,982
2023-04-13T11:56:09.582Z,983
2023-04-13T12:02:03.229Z,983
2023-04-13T12:07:09.785Z,983
2023-04-13T12:12:46.167Z,983
2023-04-13T12:18:02.662Z,983
2023-04-13T12:23:19.147Z,983
2023-04-13T12:28:59.682Z,983
2023-04-13T12:33:59.546Z,983
2023-04-13T12:38:59.615Z,983
2023-04-13T12:44:09.543Z,983
2023-04-13T12:49:09.595Z,983
2023-04-13T12:54:59.312Z,983
2023-04-13T12:59:59.298Z,983
2023-04-13T13:04:59.345Z,983
2023-04-13T13:09:59.314Z,983
2023-04-13T13:15:09.577Z,983
2023-04-13T13:20:09.600Z,983
2023-04-13T13:25:09.692Z,983
2023-04-13T13:30:59.284Z,983
2023-04-13T13:35:59.308Z,983
2023-04-13T13:41:09.618Z,983
2023-04-13T13:46:59.332Z,983
2023-04-13T13:52:09.615Z,983
2023-04-13T13:57:59.324Z,983
2023-04-13T14:03:09.727Z,983
2023-04-13T14:08:09.599Z,983
2023-04-13T14:13:09.604Z,983
2023-04-13T14:18:59.585Z,983
2023-04-13T14:24:09.594Z,983
2023-04-13T14:29:09.609Z,983
2023-04-13T14:34:59.351Z,983
2023-04-13T14:40:09.592Z,983
2023-04-13T14:45:09.595Z,983
2023-04-13T14:56:09.622Z,983
2023-04-13T15:01:59.407Z,983
2023-04-13T15:07:09.616Z,983
2023-04-13T15:12:59.324Z,983
2023-04-13T15:18:09.604Z,983
2023-04-13T15:23:09.610Z,983
2023-04-13T15:28:59.694Z,983
2023-04-13T15:33:59.450Z,983
2023-04-13T15:39:09.607Z,983
2023-04-13T15:44:09.618Z,984
2023-04-13T15:49:59.431Z,984
2023-04-13T15:55:09.611Z,984
2023-04-13T16:00:09.617Z,984
2023-04-13T16:05:59.317Z,984
2023-04-13T16:10:59.363Z,984
2023-04-13T16:15:59.349Z,984
2023-04-13T16:21:09.607Z,984
2023-04-13T16:26:59.329Z,984
2023-04-13T16:31:59.341Z,984
2023-04-13T16:37:09.631Z,984
2023-04-13T16:42:59.323Z,984
2023-04-13T16:47:59.398Z,984
2023-04-13T16:52:59.317Z,984
2023-04-13T16:57:59.354Z,984
2023-04-13T17:03:09.727Z,984
2023-04-13T17:08:09.631Z,984
2023-04-13T17:13:59.380Z,984
2023-04-13T17:19:09.640Z,984
2023-04-13T17:24:59.357Z,984
2023-04-13T17:29:59.360Z,984
2023-04-13T17:35:09.613Z,984
2023-04-13T17:40:09.657Z,985
2023-04-13T17:45:59.368Z,985
2023-04-13T17:50:59.376Z,985
2023-04-13T17:56:09.634Z,985
2023-04-13T18:01:59.381Z,985
2023-04-13T18:07:09.648Z,985
2023-04-13T18:12:09.654Z,985
2023-04-13T18:17:09.676Z,985
2023-04-13T18:22:59.360Z,985
2023-04-13T18:27:59.368Z,985
2023-04-13T18:32:59.384Z,985
2023-04-13T18:37:59.385Z,985
2023-04-13T18:43:09.651Z,985
2023-04-13T18:48:59.348Z,985
2023-04-13T18:53:59.656Z,985
2023-04-13T18:59:09.659Z,985
2023-04-13T19:04:59.409Z,985
2023-04-13T19:10:09.619Z,986
2023-04-13T19:15:09.653Z,986
2023-04-13T19:20:59.355Z,986
2023-04-13T19:25:59.365Z,986
2023-04-13T19:30:59.371Z,986
2023-04-13T19:36:09.626Z,986
2023-04-13T19:41:09.661Z,986
2023-04-13T19:46:20.022Z,986
2023-04-13T19:51:59.350Z,987
2023-04-13T19:56:59.394Z,987
2023-04-13T20:02:09.764Z,987
2023-04-13T20:07:59.391Z,987
2023-04-13T20:13:09.698Z,987
2023-04-13T20:18:59.393Z,987
2023-04-13T20:24:09.675Z,987
2023-04-13T20:29:59.379Z,987
2023-04-13T20:35:09.664Z,987
2023-04-13T20:40:59.385Z,987
2023-04-13T20:46:09.712Z,987
2023-04-13T20:51:59.380Z,987
2023-04-13T20:57:09.677Z,987
2023-04-13T21:02:59.464Z,987
2023-04-13T21:08:09.675Z,987
2023-04-13T21:13:59.793Z,987
2023-04-13T21:19:09.677Z,986
2023-04-13T21:24:59.370Z,986
2023-04-13T21:30:09.675Z,986
2023-04-13T21:36:51.452Z,986
2023-04-13T21:40:59.366Z,986
2023-04-13T21:45:59.414Z,986
2023-04-13T21:50:59.380Z,987
2023-04-13T21:56:09.695Z,986
2023-04-13T22:01:59.505Z,987
2023-04-13T22:06:59.388Z,987
2023-04-13T22:12:09.661Z,987
2023-04-13T22:17:09.669Z,987
2023-04-13T22:22:59.398Z,987
2023-04-13T22:28:09.664Z,987
2023-04-13T22:33:09.661Z,987
2023-04-13T22:38:59.662Z,987
2023-04-13T22:44:09.678Z,987
2023-04-13T22:49:59.392Z,987
2023-04-13T22:55:09.659Z,987
2023-04-13T23:00:59.421Z,987
2023-04-13T23:11:09.674Z,987
2023-04-13T23:16:59.374Z,987
2023-04-13T23:21:59.387Z,987
2023-04-13T23:27:09.654Z,987
2023-04-13T23:32:09.853Z,987
2023-04-13T23:37:59.393Z,987
2023-04-13T23:43:09.668Z,987
2023-04-13T23:48:59.614Z,987
2023-04-13T23:54:09.685Z,987
2023-04-13T23:59:59.392Z,987
